Time,TemperatureF,DewpointF,PressureIn,WindDirection,WindDirectionDegrees,WindSpeedMPH,WindSpeedGustMPH,Humidity,HourlyPrecipIn,Conditions,Clouds,dailyrainin,SoftwareType,DateUTC
2013-07-21 00:00:00,67.2,61.9,29.84,NW,326,0.0,1.0,83,0.00,,,0.00,Wunderground v.1.15,2013-07-21 04:00:00,
2013-07-21 00:05:00,66.8,61.5,29.84,NW,326,0.0,1.0,83,0.00,,,0.00,Wunderground v.1.15,2013-07-21 04:05:00,
2013-07-21 00:10:00,66.5,61.5,29.84,NW,326,0.0,1.0,84,0.00,,,0.00,Wunderground v.1.15,2013-07-21 04:10:00,
2013-07-21 00:15:00,66.2,61.2,29.84,NW,326,0.0,1.0,84,0.00,,,0.00,Wunderground v.1.15,2013-07-21 04:15:00,
2013-07-21 00:20:00,65.9,60.9,29.84,NW,326,0.0,1.0,84,0.00,,,0.00,Wunderground v.1.15,2013-07-21 04:20:00,
2013-07-21 09:25:00,70.2,62.3,29.95,North,360,2.0,2.0,76,0.00,,,0.00,Wunderground v.1.15,2013-07-21 13:25:00,
2013-07-21 09:30:00,70.5,62.6,29.95,North,360,1.0,2.0,76,0.00,,,0.00,Wunderground v.1.15,2013-07-21 13:30:00,
2013-07-21 09:35:00,70.8,63.2,29.95,North,360,0.0,0.0,77,0.00,,,0.00,Wunderground v.1.15,2013-07-21 13:35:00,
2013-07-21 09:45:00,71.1,63.1,29.95,North,355,1.0,4.0,76,0.00,,,0.00,Wunderground v.1.15,2013-07-21 13:45:00,
2013-07-21 09:50:00,71.5,63.9,29.95,North,355,1.0,4.0,77,0.00,,,0.00,Wunderground v.1.15,2013-07-21 13:50:00,
2013-07-21 09:55:00,71.8,63.4,29.95,North,360,1.0,1.0,75,0.00,,,0.00,Wunderground v.1.15,2013-07-21 13:55:00,
2013-07-21 10:05:00,71.6,62.9,29.95,North,355,2.0,7.0,74,0.00,,,0.00,Wunderground v.1.15,2013-07-21 14:05:00,
2013-07-21 10:10:00,71.7,63.0,29.95,North,355,2.0,2.0,74,0.00,,,0.00,Wunderground v.1.15,2013-07-21 14:10:00,
2013-07-21 10:15:00,71.7,63.0,29.95,North,360,1.0,3.0,74,0.00,,,0.00,Wunderground v.1.15,2013-07-21 14:15:00,
2013-07-21 10:25:00,71.7,63.4,29.95,North,355,2.0,7.0,75,0.00,,,0.00,Wunderground v.1.15,2013-07-21 14:25:00,
2013-07-21 10:30:00,71.8,62.7,29.94,North,355,2.0,2.0,73,0.00,,,0.00,Wunderground v.1.15,2013-07-21 14:30:00,
2013-07-21 10:40:00,71.3,61.8,29.95,ESE,117,0.0,7.0,72,0.00,,,0.00,Wunderground v.1.15,2013-07-21 14:40:00,
2013-07-21 10:45:00,71.2,62.9,29.95,SSE,157,0.0,7.0,75,0.00,,,0.00,Wunderground v.1.15,2013-07-21 14:45:00,
2013-07-21 10:50:00,71.5,63.2,29.95,SSE,152,0.0,7.0,75,0.00,,,0.00,Wunderground v.1.15,2013-07-21 14:50:00,
2013-07-21 10:55:00,72.0,63.6,29.95,North,350,1.0,7.0,75,0.00,,,0.00,Wunderground v.1.15,2013-07-21 14:55:00,
2013-07-21 11:05:00,72.1,62.6,29.96,North,360,1.0,7.0,72,0.00,,,0.00,Wunderground v.1.15,2013-07-21 15:05:00,
2013-07-21 11:10:00,72.4,63.3,29.96,North,360,1.0,1.0,73,0.00,,,0.00,Wunderground v.1.15,2013-07-21 15:10:00,
2013-07-21 11:15:00,72.8,62.8,29.96,NNW,347,1.0,4.0,71,0.00,,,0.00,Wunderground v.1.15,2013-07-21 15:15:00,
2013-07-21 11:20:00,72.8,62.8,29.96,NNW,346,1.0,7.0,71,0.00,,,0.00,Wunderground v.1.15,2013-07-21 15:20:00,
2013-07-21 11:25:00,73.1,62.7,29.96,NNW,347,1.0,7.0,70,0.00,,,0.00,Wunderground v.1.15,2013-07-21 15:25:00,
2013-07-21 11:30:00,73.4,63.4,29.96,NNW,348,1.0,7.0,71,0.00,,,0.00,Wunderground v.1.15,2013-07-21 15:30:00,
2013-07-21 11:35:00,73.5,63.5,29.96,NNW,346,1.0,7.0,71,0.00,,,0.00,Wunderground v.1.15,2013-07-21 15:35:00,
2013-07-21 11:45:00,73.8,63.4,29.96,North,355,1.0,7.0,70,0.00,,,0.00,Wunderground v.1.15,2013-07-21 15:45:00,
2013-07-21 11:50:00,73.9,63.1,29.96,North,355,1.0,1.0,69,0.00,,,0.00,Wunderground v.1.15,2013-07-21 15:50:00,
2013-07-21 11:55:00,73.8,62.6,29.96,NE,53,1.0,7.0,68,0.00,,,0.00,Wunderground v.1.15,2013-07-21 15:55:00,
2013-07-21 12:00:00,73.6,63.6,29.96,NE,47,1.0,1.0,71,0.00,,,0.00,Wunderground v.1.15,2013-07-21 16:00:00,
2013-07-21 12:05:00,73.9,63.5,29.96,North,355,1.0,3.0,70,0.00,,,0.00,Wunderground v.1.15,2013-07-21 16:05:00,
2013-07-21 12:10:00,74.0,64.0,29.96,North,355,1.0,7.0,71,0.00,,,0.00,Wunderground v.1.15,2013-07-21 16:10:00,
2013-07-21 12:15:00,74.1,63.7,29.96,North,5,1.0,7.0,70,0.00,,,0.00,Wunderground v.1.15,2013-07-21 16:15:00,
2013-07-21 12:20:00,74.4,64.0,29.96,North,355,1.0,7.0,70,0.00,,,0.00,Wunderground v.1.15,2013-07-21 16:20:00,
2013-07-21 12:25:00,74.2,63.4,29.96,NNE,33,1.0,7.0,69,0.00,,,0.00,Wunderground v.1.15,2013-07-21 16:25:00,
2013-07-21 12:35:00,74.5,63.2,29.95,North,5,1.0,7.0,68,0.00,,,0.00,Wunderground v.1.15,2013-07-21 16:35:00,
2013-07-21 12:40:00,74.3,63.5,29.96,NNW,331,2.0,2.0,69,0.00,,,0.00,Wunderground v.1.15,2013-07-21 16:40:00,
2013-07-21 12:45:00,74.3,63.9,29.96,North,355,2.0,4.0,70,0.00,,,0.00,Wunderground v.1.15,2013-07-21 16:45:00,
2013-07-21 12:55:00,74.1,63.3,29.96,NNW,348,2.0,7.0,69,0.00,,,0.00,Wunderground v.1.15,2013-07-21 16:55:00,
2013-07-21 13:00:00,73.8,63.0,29.96,NNW,337,3.0,3.0,69,0.00,,,0.00,Wunderground v.1.15,2013-07-21 17:00:00,
2013-07-21 13:10:00,74.0,64.8,29.96,NNW,342,2.0,2.0,73,0.00,,,0.00,Wunderground v.1.15,2013-07-21 17:10:00,
2013-07-21 13:15:00,73.6,62.4,29.96,NNW,328,2.0,7.0,68,0.00,,,0.00,Wunderground v.1.15,2013-07-21 17:15:00,
2013-07-21 13:20:00,73.5,62.7,29.96,NE,35,2.0,7.0,69,0.00,,,0.00,Wunderground v.1.15,2013-07-21 17:20:00,
2013-07-21 13:25:00,73.9,63.1,29.96,NW,321,2.0,7.0,69,0.00,,,0.00,Wunderground v.1.15,2013-07-21 17:25:00,
2013-07-21 13:30:00,74.2,63.0,29.96,North,350,3.0,3.0,68,0.00,,,0.00,Wunderground v.1.15,2013-07-21 17:30:00,
2013-07-21 13:35:00,74.6,64.6,29.96,North,360,2.0,7.0,71,0.00,,,0.00,Wunderground v.1.15,2013-07-21 17:35:00,
2013-07-21 13:40:00,74.3,63.9,29.96,North,360,1.0,1.0,70,0.00,,,0.00,Wunderground v.1.15,2013-07-21 17:40:00,
2013-07-21 13:50:00,73.7,62.5,29.96,NNE,13,1.0,1.0,68,0.00,,,0.00,Wunderground v.1.15,2013-07-21 17:50:00,
2013-07-21 13:55:00,73.6,62.0,29.96,NNE,13,1.0,7.0,67,0.00,,,0.00,Wunderground v.1.15,2013-07-21 17:55:00,
2013-07-21 14:05:00,73.9,61.4,29.96,NE,40,1.0,2.0,65,0.00,,,0.00,Wunderground v.1.15,2013-07-21 18:05:00,
2013-07-21 14:10:00,73.7,62.1,29.96,NE,50,1.0,1.0,67,0.00,,,0.00,Wunderground v.1.15,2013-07-21 18:10:00,
2013-07-21 14:15:00,73.3,62.1,29.95,NE,51,1.0,7.0,68,0.00,,,0.00,Wunderground v.1.15,2013-07-21 18:15:00,
2013-07-21 14:20:00,74.1,62.9,29.96,North,5,1.0,7.0,68,0.00,,,0.00,Wunderground v.1.15,2013-07-21 18:20:00,
2013-07-21 14:30:00,74.5,60.6,29.96,North,5,1.0,1.0,62,0.00,,,0.00,Wunderground v.1.15,2013-07-21 18:30:00,
2013-07-21 14:40:00,74.7,62.1,29.95,North,5,1.0,7.0,65,0.00,,,0.00,Wunderground v.1.15,2013-07-21 18:40:00,
2013-07-21 14:45:00,74.7,61.7,29.95,North,351,1.0,7.0,64,0.00,,,0.00,Wunderground v.1.15,2013-07-21 18:45:00,
2013-07-21 14:50:00,74.3,61.3,29.95,North,355,2.0,7.0,64,0.00,,,0.00,Wunderground v.1.15,2013-07-21 18:50:00,
2013-07-21 14:55:00,74.4,61.4,29.95,NNW,337,2.0,7.0,64,0.00,,,0.00,Wunderground v.1.15,2013-07-21 18:55:00,
2013-07-21 15:00:00,74.7,61.3,29.95,NNW,348,2.0,2.0,63,0.00,,,0.00,Wunderground v.1.15,2013-07-21 19:00:00,
2013-07-21 15:10:00,74.9,61.9,29.94,NNW,346,1.0,7.0,64,0.00,,,0.00,Wunderground v.1.15,2013-07-21 19:10:00,
2013-07-21 15:15:00,75.1,62.1,29.94,NNE,13,2.0,7.0,64,0.00,,,0.00,Wunderground v.1.15,2013-07-21 19:15:00,
2013-07-21 15:20:00,74.9,61.0,29.94,North,360,2.0,7.0,62,0.00,,,0.00,Wunderground v.1.15,2013-07-21 19:20:00,
2013-07-21 15:25:00,74.5,62.4,29.94,NNE,13,2.0,7.0,66,0.00,,,0.00,Wunderground v.1.15,2013-07-21 19:25:00,
2013-07-21 15:30:00,75.4,62.8,29.94,NNW,333,1.0,7.0,65,0.00,,,0.00,Wunderground v.1.15,2013-07-21 19:30:00,
2013-07-21 15:35:00,74.8,60.9,29.94,NNW,346,1.0,7.0,62,0.00,,,0.00,Wunderground v.1.15,2013-07-21 19:35:00,
2013-07-21 15:40:00,74.4,61.0,29.94,North,349,2.0,2.0,63,0.00,,,0.00,Wunderground v.1.15,2013-07-21 19:40:00,
2013-07-21 15:45:00,74.6,62.1,29.93,North,355,1.0,7.0,65,0.00,,,0.00,Wunderground v.1.15,2013-07-21 19:45:00,
2013-07-21 15:55:00,74.2,61.2,29.93,North,360,1.0,7.0,64,0.00,,,0.00,Wunderground v.1.15,2013-07-21 19:55:00,
2013-07-21 16:00:00,73.9,61.4,29.93,North,355,2.0,7.0,65,0.00,,,0.00,Wunderground v.1.15,2013-07-21 20:00:00,
2013-07-21 16:05:00,73.7,60.8,29.93,North,355,3.0,7.0,64,0.00,,,0.00,Wunderground v.1.15,2013-07-21 20:05:00,
2013-07-21 16:10:00,73.8,61.3,29.93,North,360,2.0,2.0,65,0.00,,,0.00,Wunderground v.1.15,2013-07-21 20:10:00,
2013-07-21 16:15:00,73.3,60.4,29.93,North,5,2.0,7.0,64,0.00,,,0.00,Wunderground v.1.15,2013-07-21 20:15:00,
2013-07-21 16:20:00,73.0,60.5,29.93,NNW,338,3.0,3.0,65,0.00,,,0.00,Wunderground v.1.15,2013-07-21 20:20:00,
2013-07-21 16:25:00,73.2,60.3,29.93,NNW,346,3.0,7.0,64,0.00,,,0.00,Wunderground v.1.15,2013-07-21 20:25:00,
2013-07-21 16:35:00,73.1,60.6,29.93,NNW,334,2.0,7.0,65,0.00,,,0.00,Wunderground v.1.15,2013-07-21 20:35:00,
2013-07-21 16:40:00,72.8,60.3,29.93,North,360,2.0,7.0,65,0.00,,,0.00,Wunderground v.1.15,2013-07-21 20:40:00,
2013-07-21 16:45:00,72.6,60.6,29.93,North,355,2.0,7.0,66,0.00,,,0.00,Wunderground v.1.15,2013-07-21 20:45:00,
2013-07-21 16:50:00,72.4,60.0,29.93,NNW,337,2.0,2.0,65,0.00,,,0.00,Wunderground v.1.15,2013-07-21 20:50:00,
2013-07-21 16:55:00,72.4,60.8,29.93,NNW,340,1.0,7.0,67,0.00,,,0.00,Wunderground v.1.15,2013-07-21 20:55:00,
2013-07-21 17:00:00,73.1,61.1,29.93,NNW,345,1.0,7.0,66,0.00,,,0.00,Wunderground v.1.15,2013-07-21 21:00:00,
2013-07-21 17:05:00,73.5,60.6,29.93,North,355,1.0,7.0,64,0.00,,,0.00,Wunderground v.1.15,2013-07-21 21:05:00,
2013-07-21 17:15:00,73.4,60.0,29.93,North,355,2.0,3.0,63,0.00,,,0.00,Wunderground v.1.15,2013-07-21 21:15:00,
2013-07-21 17:20:00,74.0,61.0,29.93,NNW,348,2.0,7.0,64,0.00,,,0.00,Wunderground v.1.15,2013-07-21 21:20:00,
2013-07-21 17:25:00,73.6,59.8,29.93,North,351,2.0,7.0,62,0.00,,,0.00,Wunderground v.1.15,2013-07-21 21:25:00,
2013-07-21 17:30:00,72.9,59.6,29.93,North,360,3.0,8.0,63,0.00,,,0.00,Wunderground v.1.15,2013-07-21 21:30:00,
2013-07-21 17:35:00,72.4,59.5,29.93,North,355,2.0,8.0,64,0.00,,,0.00,Wunderground v.1.15,2013-07-21 21:35:00,
2013-07-21 17:40:00,72.2,59.8,29.93,North,355,2.0,7.0,65,0.00,,,0.00,Wunderground v.1.15,2013-07-21 21:40:00,
2013-07-21 17:45:00,72.0,59.2,29.93,North,355,3.0,7.0,64,0.00,,,0.00,Wunderground v.1.15,2013-07-21 21:45:00,
2013-07-21 17:55:00,72.1,59.7,29.93,NNW,342,1.0,7.0,65,0.00,,,0.00,Wunderground v.1.15,2013-07-21 21:55:00,
2013-07-21 18:00:00,72.2,59.8,29.93,NNW,343,1.0,7.0,65,0.00,,,0.00,Wunderground v.1.15,2013-07-21 22:00:00,
2013-07-21 18:10:00,71.9,59.5,29.93,NNW,340,1.0,1.0,65,0.00,,,0.00,Wunderground v.1.15,2013-07-21 22:10:00,
2013-07-21 18:15:00,71.8,59.0,29.93,NNW,338,1.0,2.0,64,0.00,,,0.00,Wunderground v.1.15,2013-07-21 22:15:00,
2013-07-21 18:20:00,71.7,58.9,29.92,NNW,338,1.0,7.0,64,0.00,,,0.00,Wunderground v.1.15,2013-07-21 22:20:00,
2013-07-21 18:25:00,71.8,59.4,29.93,NNW,338,1.0,7.0,65,0.00,,,0.00,Wunderground v.1.15,2013-07-21 22:25:00,
2013-07-21 18:35:00,72.0,60.0,29.93,NNW,339,0.0,7.0,66,0.00,,,0.00,Wunderground v.1.15,2013-07-21 22:35:00,
2013-07-21 18:40:00,71.9,59.9,29.93,NNW,339,0.0,7.0,66,0.00,,,0.00,Wunderground v.1.15,2013-07-21 22:40:00,
2013-07-21 18:45:00,71.8,59.4,29.93,NNW,339,1.0,7.0,65,0.00,,,0.00,Wunderground v.1.15,2013-07-21 22:45:00,
2013-07-21 18:50:00,71.9,59.5,29.93,NNW,340,1.0,7.0,65,0.00,,,0.00,Wunderground v.1.15,2013-07-21 22:50:00,
2013-07-21 18:55:00,72.0,60.0,29.93,NNW,340,1.0,7.0,66,0.00,,,0.00,Wunderground v.1.15,2013-07-21 22:55:00,
2013-07-21 19:00:00,72.2,59.8,29.93,NNW,340,1.0,7.0,65,0.00,,,0.00,Wunderground v.1.15,2013-07-21 23:00:00,
2013-07-21 19:05:00,72.5,59.6,29.93,NNW,340,1.0,7.0,64,0.00,,,0.00,Wunderground v.1.15,2013-07-21 23:05:00,
2013-07-21 19:15:00,72.1,59.7,29.93,NNW,340,1.0,7.0,65,0.00,,,0.00,Wunderground v.1.15,2013-07-21 23:15:00,
2013-07-21 19:20:00,71.8,59.8,29.93,NNW,340,0.0,7.0,66,0.00,,,0.00,Wunderground v.1.15,2013-07-21 23:20:00,
2013-07-21 19:25:00,71.3,59.4,29.93,NNW,340,0.0,7.0,66,0.00,,,0.00,Wunderground v.1.15,2013-07-21 23:25:00,
2013-07-21 19:30:00,71.0,59.5,29.93,NNW,340,0.0,7.0,67,0.00,,,0.00,Wunderground v.1.15,2013-07-21 23:30:00,
2013-07-21 19:40:00,70.4,59.3,29.93,NNW,340,0.0,7.0,68,0.00,,,0.00,Wunderground v.1.15,2013-07-21 23:40:00,
2013-07-21 19:45:00,70.2,59.6,29.93,NNW,340,0.0,7.0,69,0.00,,,0.00,Wunderground v.1.15,2013-07-21 23:45:00,
2013-07-21 19:50:00,70.0,59.8,29.93,NNW,340,0.0,7.0,70,0.00,,,0.00,Wunderground v.1.15,2013-07-21 23:50:00,
2013-07-21 19:55:00,69.8,59.6,29.93,NNW,340,0.0,7.0,70,0.00,,,0.00,Wunderground v.1.15,2013-07-21 23:55:00,
2013-07-21 20:00:00,69.7,59.5,29.93,NNW,340,0.0,7.0,70,0.00,,,0.00,Wunderground v.1.15,2013-07-22 00:00:00,
2013-07-21 20:05:00,69.6,60.2,29.93,NNW,340,0.0,7.0,72,0.00,,,0.00,Wunderground v.1.15,2013-07-22 00:05:00,
2013-07-21 20:10:00,69.6,60.2,29.93,NNW,340,0.0,7.0,72,0.00,,,0.00,Wunderground v.1.15,2013-07-22 00:10:00,
2013-07-21 20:20:00,69.3,60.3,29.93,NNW,340,0.0,7.0,73,0.00,,,0.00,Wunderground v.1.15,2013-07-22 00:20:00,
2013-07-21 20:25:00,69.0,60.4,29.93,NNW,340,0.0,7.0,74,0.00,,,0.00,Wunderground v.1.15,2013-07-22 00:25:00,
2013-07-21 20:30:00,68.7,60.1,29.93,NNW,340,0.0,7.0,74,0.00,,,0.00,Wunderground v.1.15,2013-07-22 00:30:00,
2013-07-21 20:35:00,68.4,60.2,29.93,NNW,340,0.0,7.0,75,0.00,,,0.00,Wunderground v.1.15,2013-07-22 00:35:00,
2013-07-21 20:40:00,68.0,59.8,29.93,NNW,340,0.0,7.0,75,0.00,,,0.00,Wunderground v.1.15,2013-07-22 00:40:00,
2013-07-21 20:45:00,67.6,59.8,29.93,NNW,340,0.0,7.0,76,0.00,,,0.00,Wunderground v.1.15,2013-07-22 00:45:00,
2013-07-21 20:55:00,66.8,59.4,29.93,NNW,340,0.0,7.0,77,0.00,,,0.00,Wunderground v.1.15,2013-07-22 00:55:00,
2013-07-21 21:00:00,66.3,58.9,29.93,NNW,340,0.0,7.0,77,0.00,,,0.00,Wunderground v.1.15,2013-07-22 01:00:00,
2013-07-21 21:05:00,65.9,58.8,29.93,NNW,340,0.0,7.0,78,0.00,,,0.00,Wunderground v.1.15,2013-07-22 01:05:00,
2013-07-21 21:15:00,65.0,58.3,29.94,NNW,340,0.0,7.0,79,0.00,,,0.00,Wunderground v.1.15,2013-07-22 01:15:00,
2013-07-21 21:20:00,64.6,57.9,29.94,NNW,340,0.0,7.0,79,0.00,,,0.00,Wunderground v.1.15,2013-07-22 01:20:00,
2013-07-21 21:25:00,64.3,58.0,29.94,NNW,340,0.0,7.0,80,0.00,,,0.00,Wunderground v.1.15,2013-07-22 01:25:00,
2013-07-21 21:35:00,63.6,57.7,29.94,NNW,340,0.0,7.0,81,0.00,,,0.00,Wunderground v.1.15,2013-07-22 01:35:00,
2013-07-21 21:40:00,63.4,57.5,29.94,NNW,340,0.0,7.0,81,0.00,,,0.00,Wunderground v.1.15,2013-07-22 01:40:00,
2013-07-21 21:45:00,63.1,57.5,29.95,NNW,340,0.0,7.0,82,0.00,,,0.00,Wunderground v.1.15,2013-07-22 01:45:00,
2013-07-21 21:50:00,62.9,57.3,29.95,NNW,340,0.0,7.0,82,0.00,,,0.00,Wunderground v.1.15,2013-07-22 01:50:00,
2013-07-21 21:55:00,62.7,57.5,29.95,NNW,340,0.0,7.0,83,0.00,,,0.00,Wunderground v.1.15,2013-07-22 01:55:00,
2013-07-21 22:00:00,62.5,57.3,29.95,NNW,340,0.0,7.0,83,0.00,,,0.00,Wunderground v.1.15,2013-07-22 02:00:00,
2013-07-21 22:05:00,62.4,57.5,29.95,NNW,340,0.0,7.0,84,0.00,,,0.00,Wunderground v.1.15,2013-07-22 02:05:00,
2013-07-21 22:15:00,62.2,57.6,29.96,NNW,340,0.0,7.0,85,0.00,,,0.00,Wunderground v.1.15,2013-07-22 02:15:00,
2013-07-21 22:20:00,62.1,57.5,29.96,NNW,340,0.0,7.0,85,0.00,,,0.00,Wunderground v.1.15,2013-07-22 02:20:00,
2013-07-21 22:25:00,62.0,57.4,29.96,NNW,340,0.0,7.0,85,0.00,,,0.00,Wunderground v.1.15,2013-07-22 02:25:00,
2013-07-21 22:30:00,61.8,57.2,29.96,NNW,340,0.0,7.0,85,0.00,,,0.00,Wunderground v.1.15,2013-07-22 02:30:00,
2013-07-21 22:35:00,61.7,57.5,29.96,NNW,340,0.0,7.0,86,0.00,,,0.00,Wunderground v.1.15,2013-07-22 02:35:00,
2013-07-21 22:40:00,61.5,57.3,29.96,NNW,340,0.0,7.0,86,0.00,,,0.00,Wunderground v.1.15,2013-07-22 02:40:00,
2013-07-21 22:45:00,61.3,57.1,29.95,NNW,340,0.0,7.0,86,0.00,,,0.00,Wunderground v.1.15,2013-07-22 02:45:00,
2013-07-21 22:50:00,61.2,57.0,29.96,NNW,340,0.0,7.0,86,0.00,,,0.00,Wunderground v.1.15,2013-07-22 02:50:00,
2013-07-21 23:00:00,60.9,56.7,29.96,NNW,340,0.0,7.0,86,0.00,,,0.00,Wunderground v.1.15,2013-07-22 03:00:00,
2013-07-21 23:05:00,60.9,56.7,29.96,NNW,340,0.0,7.0,86,0.00,,,0.00,Wunderground v.1.15,2013-07-22 03:05:00,
2013-07-21 23:10:00,60.8,56.6,29.96,NNW,340,0.0,7.0,86,0.00,,,0.00,Wunderground v.1.15,2013-07-22 03:10:00,
2013-07-21 23:15:00,60.7,56.8,29.96,NNW,340,0.0,7.0,87,0.00,,,0.00,Wunderground v.1.15,2013-07-22 03:15:00,
2013-07-21 23:20:00,60.7,56.8,29.95,NNW,340,0.0,7.0,87,0.00,,,0.00,Wunderground v.1.15,2013-07-22 03:20:00,
2013-07-21 23:30:00,60.6,57.0,29.96,NNW,340,0.0,7.0,88,0.00,,,0.00,Wunderground v.1.15,2013-07-22 03:30:00,
2013-07-21 23:40:00,60.6,57.0,29.95,NNW,340,0.0,7.0,88,0.00,,,0.00,Wunderground v.1.15,2013-07-22 03:40:00,
2013-07-21 23:45:00,60.5,56.9,29.95,NNW,340,0.0,7.0,88,0.00,,,0.00,Wunderground v.1.15,2013-07-22 03:45:00,
2013-07-21 23:50:00,60.4,57.1,29.95,NNW,340,0.0,7.0,89,0.00,,,0.00,Wunderground v.1.15,2013-07-22 03:50:00,
2013-07-21 23:55:00,60.3,57.0,29.95,NNW,340,0.0,7.0,89,0.00,,,0.00,Wunderground v.1.15,2013-07-22 03:55:00,